»·PEaware :: SWA2421 KDEN-KAMA

SWA2421 :: KDEN-KAMA

FLIGHT INFORMATION

Flight Status: Arrived
Operator:
Southwest Airlines
More flights by this operator :: More flights under this callsign
Pilot: Anonymous 12565 (12565)
Aircraft: BOEING 737-300
(B733)
More flights by this aircraft type
Origin: KDEN Denver Intl
United States
Destination: KAMA Amarillo Intl
United States
More flights between these airports :: More routes between these airports
Route: +STAKR3 PYPER KENTO PNH
File this flight plan on PilotEdge
Remarks:
Altitude:
(Current/Filed)
30,000ft
Speed:
(Current/Filed)
450kts
Departed: 10-Jul-17 09:00 AM
Arrived: 10-Jul-17 09:57 AM
Distance/Time
Traveled:
312nm/0:56
Distance/Time
To Go:
Arrived

Flight Plot

Page will automatically refresh every two minutes.

Flight plan parsing failed; only flown route is shown


Map Options




Map Legend


Flown Route
Filed Route
Departure Airport
Arrival Airport
Navaid (VOR, NDB)
Fix

Horizontal Profiles

Position Reports

Time Latitude Longitude Heading Altitude Ground
Speed
10-Jul-17 08:50 39.853460 -104.672457 70 5378ft 0kts
10-Jul-17 08:51 39.853460 -104.672457 70 5378ft 0kts
10-Jul-17 08:52 39.853460 -104.672457 70 5378ft 0kts
10-Jul-17 08:53 39.853460 -104.672457 70 5378ft 0kts
10-Jul-17 08:54 39.853460 -104.672457 70 5378ft 0kts
10-Jul-17 08:55 39.853460 -104.672457 70 5378ft 0kts
10-Jul-17 08:56 39.853460 -104.672457 70 5378ft 0kts
10-Jul-17 08:57 39.853964 -104.670613 70 5377ft 19kts
10-Jul-17 08:58 39.852108 -104.663235 86 5387ft 22kts
10-Jul-17 08:59 39.856835 -104.662371 358 5380ft 22kts
10-Jul-17 09:00 39.863310 -104.662315 0 5373ft 31kts
10-Jul-17 09:01 39.871711 -104.662187 0 5357ft 36kts
10-Jul-17 09:02 39.877542 -104.659796 90 5347ft 30kts
10-Jul-17 09:03 39.877402 -104.609379 89 5787ft 233kts
10-Jul-17 09:04 39.853371 -104.520325 113 8199ft 290kts
10-Jul-17 09:05 39.818085 -104.416429 115 10952ft 336kts
10-Jul-17 09:06 39.737251 -104.362270 169 14091ft 356kts
10-Jul-17 09:07 39.644176 -104.397188 202 17029ft 365kts
10-Jul-17 09:08 39.556386 -104.461445 211 19588ft 380kts
10-Jul-17 09:09 39.461983 -104.509092 182 22037ft 395kts
10-Jul-17 09:10 39.351755 -104.505279 171 24304ft 408kts
10-Jul-17 09:11 39.239875 -104.481257 172 26254ft 422kts
10-Jul-17 09:12 39.124706 -104.456939 170 28493ft 424kts
10-Jul-17 09:13 39.007561 -104.424401 169 29279ft 452kts
10-Jul-17 09:14 38.886101 -104.390821 169 29268ft 454kts
10-Jul-17 09:15 38.764741 -104.357334 169 29266ft 454kts
10-Jul-17 09:16 38.645707 -104.317024 147 29260ft 456kts
10-Jul-17 09:17 38.552486 -104.210684 139 29235ft 458kts
10-Jul-17 09:18 38.456749 -104.107166 140 29118ft 458kts
10-Jul-17 09:19 38.360590 -104.003999 140 29104ft 459kts
10-Jul-17 09:20 38.265586 -103.902178 140 29076ft 458kts
10-Jul-17 09:21 38.173599 -103.802844 140 29077ft 459kts
10-Jul-17 09:22 38.081167 -103.704435 140 29076ft 459kts
10-Jul-17 09:23 37.967902 -103.642660 162 29080ft 457kts
10-Jul-17 09:24 37.849687 -103.589991 161 29076ft 444kts
10-Jul-17 09:25 37.734589 -103.538374 161 29080ft 457kts
10-Jul-17 09:26 37.617363 -103.485962 161 29076ft 457kts
10-Jul-17 09:27 37.498670 -103.433077 161 29076ft 457kts
10-Jul-17 09:28 37.383846 -103.382172 161 29072ft 457kts
10-Jul-17 09:29 37.268041 -103.330927 161 28569ft 444kts
10-Jul-17 09:30 37.154533 -103.280842 161 27314ft 435kts
10-Jul-17 09:31 37.043453 -103.231987 161 25937ft 426kts
10-Jul-17 09:32 36.933991 -103.183993 161 24605ft 417kts
10-Jul-17 09:33 36.828081 -103.137695 161 23338ft 411kts
10-Jul-17 09:34 36.724441 -103.087511 144 22060ft 405kts
10-Jul-17 09:35 36.638176 -103.003900 142 20800ft 400kts
10-Jul-17 09:36 36.553335 -102.923138 142 19543ft 394kts
10-Jul-17 09:37 36.468435 -102.841814 143 18144ft 387kts
10-Jul-17 09:38 36.387061 -102.764909 143 16768ft 378kts
10-Jul-17 09:39 36.306621 -102.689092 143 15468ft 369kts
10-Jul-17 09:40 36.226269 -102.613539 143 14282ft 362kts
10-Jul-17 09:41 36.149919 -102.541934 143 13132ft 355kts
10-Jul-17 09:42 36.074862 -102.471716 143 11978ft 348kts
10-Jul-17 09:43 36.000859 -102.402653 143 10998ft 341kts
10-Jul-17 09:44 35.926647 -102.333566 143 10967ft 342kts
10-Jul-17 09:45 35.851636 -102.263900 143 10966ft 342kts
10-Jul-17 09:46 35.779925 -102.197448 143 10573ft 326kts
10-Jul-17 09:47 35.715226 -102.137618 144 9370ft 280kts
10-Jul-17 09:48 35.655547 -102.082580 144 8955ft 275kts
10-Jul-17 09:49 35.606537 -102.037341 141 8966ft 276kts
10-Jul-17 09:50 35.564583 -101.966044 126 8330ft 254kts
10-Jul-17 09:51 35.526856 -101.896080 126 7474ft 254kts
10-Jul-17 09:52 35.482952 -101.812686 126 6942ft 250kts
10-Jul-17 09:53 35.450785 -101.752983 125 6945ft 257kts
10-Jul-17 09:54 35.401650 -101.674076 133 5453ft 247kts
10-Jul-17 09:55 35.349539 -101.643036 171 5017ft 190kts
10-Jul-17 09:56 35.312204 -101.648168 192 4970ft 135kts
10-Jul-17 09:57 35.275028 -101.661323 202 4976ft 145kts
10-Jul-17 09:58 35.243281 -101.684993 225 3995ft 128kts
10-Jul-17 09:59 35.221795 -101.711706 223 3610ft 45kts
10-Jul-17 10:00 35.217667 -101.709421 120 3613ft 14kts
10-Jul-17 10:01 35.217652 -101.708373 50 3611ft 0kts
10-Jul-17 10:02 35.217652 -101.708373 50 3611ft 0kts
10-Jul-17 10:03 35.217652 -101.708373 50 3611ft 0kts

Navigation Log

Ident Type
Flight plan parsing failed, navigation log unavailable